Time;durP1;ratioP1;P1;durP2;ratioP2;P2;SDS_P1;SDS_P2;PMS_P1;PMS_P2;Temp;Humidity;BMP_temperature;BMP_pressure;BME280_temperature;BME280_humidity;BME280_pressure;Samples;Min_cycle;Max_cycle;Signal;HPM_P1;HPM_P2
2021/03/24 00:01:33;;;;;;;;;;;19.30;50.70;;;;;;5034265;28;1138;-66
2021/03/24 00:03:58;;;;;;;;;;;19.30;50.80;;;;;;5033235;28;1371;-66
2021/03/24 00:06:24;;;;;;;;;;;19.30;50.80;;;;;;5033924;28;1135;-66
2021/03/24 00:08:49;;;;;;;;;;;19.30;50.80;;;;;;5033469;28;1064;-65
2021/03/24 00:11:15;;;;;;;;;;;19.30;50.80;;;;;;5033424;28;1131;-66
2021/03/24 00:13:40;;;;;;;;;;;19.30;50.90;;;;;;5032266;28;1979;-65
2021/03/24 00:16:06;;;;;;;;;;;19.30;50.90;;;;;;5033598;28;1139;-66
2021/03/24 00:18:31;;;;;;;;;;;19.30;50.90;;;;;;5032069;28;1811;-66
2021/03/24 00:20:57;;;;;;;;;;;19.30;51.00;;;;;;5033786;28;1119;-66
2021/03/24 00:23:22;;;;;;;;;;;19.30;51.00;;;;;;5032578;28;1281;-66
2021/03/24 00:25:47;;;;;;;;;;;19.30;51.10;;;;;;5032982;28;1080;-66
2021/03/24 00:28:13;;;;;;;;;;;19.30;51.10;;;;;;5033134;28;1141;-66
2021/03/24 00:30:40;;;;;;;;;;;19.30;51.10;;;;;;5032010;28;1080;-66
2021/03/24 00:33:06;;;;;;;;;;;19.20;51.10;;;;;;5033356;28;1286;-66
2021/03/24 00:35:31;;;;;;;;;;;19.20;51.10;;;;;;5033376;28;1894;-66
2021/03/24 00:37:57;;;;;;;;;;;19.20;51.20;;;;;;5032911;28;1103;-66
2021/03/24 00:40:27;;;;;;;;;;;19.20;51.20;;;;;;5031959;28;1093;-66
2021/03/24 00:42:52;;;;;;;;;;;19.20;51.20;;;;;;5032983;28;1354;-66
2021/03/24 00:45:18;;;;;;;;;;;19.20;51.20;;;;;;5033322;28;1076;-66
2021/03/24 00:47:43;;;;;;;;;;;19.20;51.30;;;;;;5032807;28;1048;-65
2021/03/24 00:50:10;;;;;;;;;;;19.20;51.30;;;;;;5033101;28;1166;-66
2021/03/24 00:52:35;;;;;;;;;;;19.20;51.30;;;;;;5032728;28;1260;-66
2021/03/24 00:55:00;;;;;;;;;;;19.20;51.40;;;;;;5032805;28;1953;-66
2021/03/24 00:57:26;;;;;;;;;;;19.20;51.40;;;;;;5032461;28;1233;-66
2021/03/24 00:59:51;;;;;;;;;;;19.20;51.40;;;;;;5033089;28;1131;-66
2021/03/24 01:02:17;;;;;;;;;;;19.20;51.40;;;;;;5031661;28;1366;-66
2021/03/24 01:04:42;;;;;;;;;;;19.10;51.40;;;;;;5033357;28;1060;-66
2021/03/24 01:07:09;;;;;;;;;;;19.20;51.50;;;;;;5032897;28;1367;-66
2021/03/24 01:09:34;;;;;;;;;;;19.10;51.50;;;;;;5032363;28;1131;-66
2021/03/24 01:12:00;;;;;;;;;;;19.10;51.50;;;;;;5033251;28;1174;-66
2021/03/24 01:14:25;;;;;;;;;;;19.10;51.60;;;;;;5032392;28;1910;-66
2021/03/24 01:16:50;;;;;;;;;;;19.10;51.60;;;;;;5033109;28;1064;-66
2021/03/24 01:19:16;;;;;;;;;;;19.10;51.60;;;;;;5032308;28;1082;-66
2021/03/24 01:21:41;;;;;;;;;;;19.10;51.60;;;;;;5032803;28;1287;-66
2021/03/24 01:24:07;;;;;;;;;;;19.10;51.60;;;;;;5032219;28;1418;-66
2021/03/24 01:26:32;;;;;;;;;;;19.10;51.70;;;;;;5032935;28;1092;-66
2021/03/24 01:28:58;;;;;;;;;;;19.10;51.70;;;;;;5032004;28;1195;-66
2021/03/24 01:31:24;;;;;;;;;;;19.10;51.70;;;;;;5032941;28;1104;-66
2021/03/24 01:33:50;;;;;;;;;;;19.10;51.80;;;;;;5033778;28;1895;-66
2021/03/24 01:36:15;;;;;;;;;;;19.10;51.80;;;;;;5036600;28;1092;-66
2021/03/24 01:38:40;;;;;;;;;;;19.10;51.80;;;;;;5036046;28;1367;-66
2021/03/24 01:41:06;;;;;;;;;;;19.10;51.80;;;;;;5036436;28;1176;-66
2021/03/24 01:43:33;;;;;;;;;;;19.10;51.80;;;;;;5036355;28;1673;-66
2021/03/24 01:46:17;;;;;;;;;;;19.10;51.80;;;;;;5036351;28;1100;-66
2021/03/24 01:48:46;;;;;;;;;;;19.10;51.90;;;;;;5036226;28;1072;-66
2021/03/24 01:51:12;;;;;;;;;;;19.10;51.90;;;;;;5036492;28;1436;-66
2021/03/24 01:53:38;;;;;;;;;;;19.10;51.90;;;;;;5036144;28;1906;-66
2021/03/24 01:56:04;;;;;;;;;;;19.10;51.90;;;;;;5034848;28;1129;-66
2021/03/24 01:58:29;;;;;;;;;;;19.10;52.00;;;;;;5034623;28;1135;-67
2021/03/24 02:00:54;;;;;;;;;;;19.00;52.00;;;;;;5036007;28;1290;-66
2021/03/24 02:03:24;;;;;;;;;;;19.10;52.00;;;;;;5034737;28;1320;-66
2021/03/24 02:05:49;;;;;;;;;;;19.00;52.00;;;;;;5034592;28;1096;-66
2021/03/24 02:08:21;;;;;;;;;;;19.00;52.00;;;;;;5034521;28;1080;-66
2021/03/24 02:10:48;;;;;;;;;;;19.00;52.00;;;;;;5034614;28;1152;-66
2021/03/24 02:13:13;;;;;;;;;;;19.00;52.00;;;;;;5034569;28;1360;-66
2021/03/24 02:15:40;;;;;;;;;;;19.00;52.10;;;;;;5035911;28;1902;-66
2021/03/24 02:18:05;;;;;;;;;;;19.00;52.10;;;;;;5034097;28;1299;-66
2021/03/24 02:20:30;;;;;;;;;;;19.00;52.10;;;;;;5034415;28;1068;-66
2021/03/24 02:22:57;;;;;;;;;;;19.00;52.10;;;;;;5035832;28;1286;-66
2021/03/24 02:25:37;;;;;;;;;;;19.00;52.10;;;;;;5034365;28;1124;-67
2021/03/24 02:28:04;;;;;;;;;;;19.00;52.20;;;;;;5034045;28;1108;-66
2021/03/24 02:30:30;;;;;;;;;;;19.00;52.20;;;;;;5034553;28;1063;-66
2021/03/24 02:32:56;;;;;;;;;;;19.00;52.20;;;;;;5033919;28;1338;-66
2021/03/24 02:35:23;;;;;;;;;;;19.00;52.20;;;;;;5034293;28;1955;-66
2021/03/24 02:37:49;;;;;;;;;;;19.00;52.30;;;;;;5035032;28;1087;-66
2021/03/24 02:40:15;;;;;;;;;;;19.00;52.30;;;;;;5034298;28;1132;-66
2021/03/24 02:42:40;;;;;;;;;;;19.00;52.30;;;;;;5034305;28;1255;-66
2021/03/24 02:45:06;;;;;;;;;;;19.00;52.30;;;;;;5033641;28;1473;-66
2021/03/24 02:47:32;;;;;;;;;;;19.00;52.90;;;;;;5033728;28;1359;-66
2021/03/24 02:49:57;;;;;;;;;;;19.00;52.30;;;;;;5033841;28;1069;-66
2021/03/24 02:52:22;;;;;;;;;;;18.90;52.30;;;;;;5034263;28;1370;-66
2021/03/24 02:54:48;;;;;;;;;;;19.00;52.40;;;;;;5016913;28;1965;-66
2021/03/24 02:57:13;;;;;;;;;;;19.00;52.40;;;;;;5033744;28;1191;-66
2021/03/24 02:59:39;;;;;;;;;;;19.00;52.40;;;;;;5034827;28;1096;-66
2021/03/24 03:02:10;;;;;;;;;;;18.90;52.40;;;;;;5034830;28;1380;-66
2021/03/24 03:04:40;;;;;;;;;;;18.90;52.40;;;;;;5033346;28;1217;-67
2021/03/24 03:07:10;;;;;;;;;;;18.90;52.50;;;;;;5033470;28;1136;-67
2021/03/24 03:09:41;;;;;;;;;;;19.00;52.50;;;;;;5033471;28;1491;-66
2021/03/24 03:12:11;;;;;;;;;;;18.90;52.50;;;;;;5033666;28;1145;-66
2021/03/24 03:14:41;;;;;;;;;;;18.90;52.50;;;;;;5033260;28;1910;-66
2021/03/24 03:17:11;;;;;;;;;;;18.90;52.50;;;;;;5034563;28;1374;-66
2021/03/24 03:19:39;;;;;;;;;;;18.90;52.50;;;;;;5033785;28;1049;-66
2021/03/24 03:22:06;;;;;;;;;;;18.90;52.50;;;;;;5033164;28;1120;-66
2021/03/24 03:24:45;;;;;;;;;;;18.90;52.50;;;;;;5033336;28;1378;-66
2021/03/24 03:27:11;;;;;;;;;;;18.90;52.60;;;;;;5032544;28;1328;-66
2021/03/24 03:29:37;;;;;;;;;;;18.90;52.60;;;;;;5033367;28;1041;-66
2021/03/24 03:32:03;;;;;;;;;;;18.90;52.60;;;;;;5033450;28;1297;-66
2021/03/24 03:34:28;;;;;;;;;;;18.90;52.60;;;;;;5033082;28;1898;-66
2021/03/24 03:36:54;;;;;;;;;;;18.90;52.60;;;;;;5032951;28;1108;-66
2021/03/24 03:39:20;;;;;;;;;;;18.90;52.70;;;;;;5032917;28;1140;-66
2021/03/24 03:41:45;;;;;;;;;;;18.90;52.70;;;;;;5032655;28;1314;-66
2021/03/24 03:44:11;;;;;;;;;;;18.90;52.70;;;;;;5032991;28;1199;-66
2021/03/24 03:46:38;;;;;;;;;;;18.90;52.70;;;;;;5032809;28;1176;-66
2021/03/24 03:49:03;;;;;;;;;;;18.90;52.80;;;;;;5032711;28;1093;-66
2021/03/24 03:51:29;;;;;;;;;;;18.90;52.80;;;;;;5033010;28;1176;-66
2021/03/24 03:54:06;;;;;;;;;;;18.90;52.80;;;;;;5033776;28;1949;-66
2021/03/24 03:56:33;;;;;;;;;;;18.90;52.80;;;;;;5032426;28;1211;-66
2021/03/24 03:59:18;;;;;;;;;;;18.90;52.80;;;;;;5032233;28;1111;-66
2021/03/24 04:01:45;;;;;;;;;;;18.90;52.80;;;;;;5033371;28;1224;-66
2021/03/24 04:04:18;;;;;;;;;;;18.90;52.90;;;;;;5032037;28;1282;-67
2021/03/24 04:06:45;;;;;;;;;;;18.90;52.80;;;;;;5032558;28;1175;-67
2021/03/24 04:09:10;;;;;;;;;;;18.90;52.90;;;;;;5032025;28;1327;-66
2021/03/24 04:11:46;;;;;;;;;;;18.90;52.50;;;;;;5032681;28;1085;-67
2021/03/24 04:14:13;;;;;;;;;;;18.90;52.40;;;;;;5032096;28;1906;-66
2021/03/24 04:16:39;;;;;;;;;;;18.90;52.40;;;;;;5033710;28;1088;-66
2021/03/24 04:19:05;;;;;;;;;;;19.00;52.40;;;;;;5032830;28;1021;-66
2021/03/24 04:21:31;;;;;;;;;;;19.10;52.40;;;;;;5033661;28;1192;-67
2021/03/24 04:24:07;;;;;;;;;;;19.20;52.20;;;;;;5031961;28;1267;-68
2021/03/24 04:26:34;;;;;;;;;;;19.30;52.00;;;;;;5015659;28;1502;-67
2021/03/24 04:29:01;;;;;;;;;;;19.40;51.80;;;;;;5031652;28;1201;-67
2021/03/24 04:31:27;;;;;;;;;;;19.50;51.60;;;;;;5032238;28;1198;-67
2021/03/24 04:33:52;;;;;;;;;;;19.60;51.40;;;;;;5031862;28;1902;-67
2021/03/24 04:36:20;;;;;;;;;;;19.70;51.20;;;;;;5033252;28;1135;-67
2021/03/24 04:38:47;;;;;;;;;;;19.80;51.10;;;;;;5033198;28;1457;-67
2021/03/24 04:41:14;;;;;;;;;;;19.80;50.90;;;;;;5031873;28;1291;-67
2021/03/24 04:43:40;;;;;;;;;;;19.90;50.70;;;;;;5032157;28;1381;-67
2021/03/24 04:46:06;;;;;;;;;;;20.00;50.50;;;;;;5015106;28;1195;-68
2021/03/24 04:48:35;;;;;;;;;;;20.00;50.50;;;;;;5032939;28;1058;-67
2021/03/24 04:51:02;;;;;;;;;;;20.10;50.30;;;;;;5031619;28;1379;-67
2021/03/24 04:53:29;;;;;;;;;;;20.10;50.20;;;;;;5032962;28;1298;-68
2021/03/24 04:55:55;;;;;;;;;;;20.20;50.20;;;;;;5031617;28;1964;-68
2021/03/24 04:58:40;;;;;;;;;;;20.20;50.10;;;;;;5031734;28;1288;-67
2021/03/24 05:01:20;;;;;;;;;;;20.30;50.00;;;;;;5031712;28;1178;-67
2021/03/24 05:03:46;;;;;;;;;;;20.30;49.90;;;;;;5015070;28;1289;-67
2021/03/24 05:06:18;;;;;;;;;;;20.40;49.90;;;;;;5031438;28;1586;-67
2021/03/24 05:08:43;;;;;;;;;;;20.40;49.80;;;;;;5030588;28;1076;-67
2021/03/24 05:11:32;;;;;;;;;;;20.40;49.80;;;;;;5031471;28;1088;-67
2021/03/24 05:13:57;;;;;;;;;;;20.40;49.70;;;;;;5022071;28;1971;-67
2021/03/24 05:16:32;;;;;;;;;;;20.50;49.70;;;;;;5032830;28;1052;-67
2021/03/24 05:18:58;;;;;;;;;;;20.50;49.60;;;;;;5031151;28;1171;-67
2021/03/24 05:21:33;;;;;;;;;;;20.50;49.60;;;;;;5015060;28;1323;-67
2021/03/24 05:23:58;;;;;;;;;;;20.60;49.60;;;;;;5028932;28;1875;-67
2021/03/24 05:26:25;;;;;;;;;;;20.60;49.60;;;;;;5031256;28;1666;-67
2021/03/24 05:28:53;;;;;;;;;;;20.60;49.50;;;;;;5030962;28;1340;-68
2021/03/24 05:31:29;;;;;;;;;;;20.60;49.50;;;;;;5031463;28;1119;-67
2021/03/24 05:34:05;;;;;;;;;;;20.70;49.50;;;;;;5030843;28;1957;-67
2021/03/24 05:36:31;;;;;;;;;;;20.70;49.50;;;;;;5031505;28;1293;-67
2021/03/24 05:38:57;;;;;;;;;;;20.70;49.40;;;;;;5030727;28;1410;-67
2021/03/24 05:41:28;;;;;;;;;;;20.70;49.40;;;;;;5031305;28;1450;-68
2021/03/24 05:43:53;;;;;;;;;;;20.80;49.40;;;;;;5030999;28;1282;-68
2021/03/24 05:46:18;;;;;;;;;;;20.80;49.40;;;;;;5031275;28;1357;-68
2021/03/24 05:48:48;;;;;;;;;;;20.80;49.40;;;;;;5031799;28;1386;-67
2021/03/24 05:51:22;;;;;;;;;;;20.80;49.40;;;;;;5031323;28;1124;-67
2021/03/24 05:54:00;;;;;;;;;;;20.80;49.40;;;;;;5030817;28;1902;-68
2021/03/24 05:56:44;;;;;;;;;;;20.80;49.30;;;;;;5032607;28;1374;-68
2021/03/24 05:59:31;;;;;;;;;;;20.90;49.50;;;;;;5031640;28;1586;-68
2021/03/24 06:01:57;;;;;;;;;;;20.90;49.30;;;;;;5032427;28;1170;-68
2021/03/24 06:04:31;;;;;;;;;;;20.90;49.30;;;;;;5030989;28;1197;-67
2021/03/24 06:07:18;;;;;;;;;;;20.90;49.30;;;;;;5032716;28;1179;-67
2021/03/24 06:10:02;;;;;;;;;;;20.90;49.20;;;;;;5030778;28;1120;-67
2021/03/24 06:12:28;;;;;;;;;;;20.90;49.30;;;;;;5031120;28;1363;-68
2021/03/24 06:15:11;;;;;;;;;;;21.00;49.30;;;;;;5030745;28;1914;-67
2021/03/24 06:17:41;;;;;;;;;;;21.00;49.30;;;;;;5032184;28;1088;-67
2021/03/24 06:20:09;;;;;;;;;;;21.00;49.20;;;;;;5033717;28;1069;-67
2021/03/24 06:22:34;;;;;;;;;;;21.00;49.20;;;;;;5035922;28;1274;-66
2021/03/24 06:25:07;;;;;;;;;;;21.00;49.20;;;;;;5035704;28;1249;-66
2021/03/24 06:27:52;;;;;;;;;;;21.00;49.20;;;;;;5034217;28;1077;-66
2021/03/24 06:30:35;;;;;;;;;;;21.00;49.30;;;;;;5035564;28;1196;-66
2021/03/24 06:33:07;;;;;;;;;;;21.00;49.20;;;;;;5042798;28;1358;-66
2021/03/24 06:36:07;;;;;;;;;;;21.00;49.20;;;;;;5035962;28;1902;-66
2021/03/24 06:38:35;;;;;;;;;;;21.00;49.20;;;;;;4954492;29;1445;-66
2021/03/24 06:41:09;;;;;;;;;;;21.00;49.20;;;;;;5014568;28;1259;-66
2021/03/24 06:43:40;;;;;;;;;;;21.00;49.30;;;;;;5035192;28;1339;-66
2021/03/24 06:46:08;;;;;;;;;;;21.00;49.30;;;;;;5035325;28;1271;-66
2021/03/24 06:48:49;;;;;;;;;;;21.00;49.30;;;;;;5033665;28;1328;-66
2021/03/24 06:51:34;;;;;;;;;;;21.00;49.40;;;;;;5035477;28;1127;-66
2021/03/24 06:54:15;;;;;;;;;;;21.00;49.40;;;;;;5033673;28;1953;-66
2021/03/24 06:57:03;;;;;;;;;;;21.00;49.50;;;;;;5035320;28;1258;-66
2021/03/24 06:59:37;;;;;;;;;;;21.00;49.50;;;;;;5033357;28;1754;-66
2021/03/24 07:02:07;;;;;;;;;;;21.00;49.60;;;;;;5034218;28;1403;-66
2021/03/24 07:04:46;;;;;;;;;;;20.90;49.60;;;;;;5034251;28;1266;-66
2021/03/24 07:07:19;;;;;;;;;;;20.90;49.70;;;;;;5033536;28;1085;-68
2021/03/24 07:10:10;;;;;;;;;;;20.90;49.70;;;;;;5033672;28;1362;-67
2021/03/24 07:12:46;;;;;;;;;;;20.90;49.80;;;;;;5035138;28;1381;-67
2021/03/24 07:15:12;;;;;;;;;;;20.80;49.80;;;;;;5033286;28;1979;-67
2021/03/24 07:17:56;;;;;;;;;;;20.80;49.90;;;;;;5034809;28;1115;-67
2021/03/24 07:20:40;;;;;;;;;;;20.80;48.90;;;;;;5034284;28;1177;-67
2021/03/24 07:23:17;;;;;;;;;;;20.70;47.10;;;;;;5034744;28;1283;-67
2021/03/24 07:25:44;;;;;;;;;;;20.60;45.50;;;;;;5034258;28;1127;-67
2021/03/24 07:28:28;;;;;;;;;;;20.50;46.10;;;;;;5033243;28;1068;-67
2021/03/24 07:30:58;;;;;;;;;;;20.50;46.50;;;;;;5015570;28;1969;-68
2021/03/24 07:33:37;;;;;;;;;;;20.40;46.90;;;;;;5030782;28;1880;-67
2021/03/24 07:36:05;;;;;;;;;;;20.50;47.20;;;;;;5027874;28;1960;-66
2021/03/24 07:38:39;;;;;;;;;;;20.50;47.50;;;;;;5026479;28;1828;-66
2021/03/24 07:41:23;;;;;;;;;;;20.40;47.70;;;;;;5024610;28;1354;-67
2021/03/24 07:44:03;;;;;;;;;;;20.50;48.00;;;;;;5032687;28;1284;-66
2021/03/24 07:46:28;;;;;;;;;;;20.40;48.10;;;;;;5031285;28;1532;-66
2021/03/24 07:48:59;;;;;;;;;;;20.40;48.20;;;;;;5031991;28;1340;-66
2021/03/24 07:51:28;;;;;;;;;;;20.40;48.40;;;;;;5031341;28;1590;-66
2021/03/24 07:54:01;;;;;;;;;;;20.40;48.60;;;;;;5031160;28;1949;-67
2021/03/24 07:56:26;;;;;;;;;;;20.40;48.70;;;;;;5032749;28;1780;-67
2021/03/24 07:59:10;;;;;;;;;;;20.40;48.80;;;;;;5033539;28;1427;-67
2021/03/24 08:01:48;;;;;;;;;;;20.40;48.90;;;;;;5031220;28;1354;-67
2021/03/24 08:04:16;;;;;;;;;;;20.40;49.00;;;;;;5031387;28;1289;-67
2021/03/24 08:06:59;;;;;;;;;;;20.40;49.20;;;;;;5029710;28;1307;-67
2021/03/24 08:09:43;;;;;;;;;;;20.40;50.10;;;;;;5026500;28;1232;-67
2021/03/24 08:12:21;;;;;;;;;;;20.30;50.50;;;;;;5025242;28;1353;-67
2021/03/24 08:14:53;;;;;;;;;;;20.40;51.00;;;;;;5027103;28;1910;-69
2021/03/24 08:17:37;;;;;;;;;;;20.30;51.10;;;;;;5028802;28;1876;-68
2021/03/24 08:20:11;;;;;;;;;;;20.30;51.20;;;;;;5029429;28;1245;-68
2021/03/24 08:22:39;;;;;;;;;;;20.30;51.30;;;;;;5026343;28;1393;-68
2021/03/24 08:25:24;;;;;;;;;;;20.30;51.40;;;;;;5026613;28;1885;-68
2021/03/24 08:27:54;;;;;;;;;;;20.30;51.50;;;;;;5030558;28;1785;-67
2021/03/24 08:30:26;;;;;;;;;;;20.30;51.70;;;;;;5032182;28;1078;-68
2021/03/24 08:33:07;;;;;;;;;;;20.30;51.70;;;;;;5029708;28;1821;-68
2021/03/24 08:35:38;;;;;;;;;;;20.30;51.70;;;;;;5030824;28;1894;-68
2021/03/24 08:38:23;;;;;;;;;;;20.30;51.80;;;;;;5031009;28;1015;-68
2021/03/24 08:40:57;;;;;;;;;;;20.30;51.80;;;;;;5030473;28;1893;-69
2021/03/24 08:43:32;;;;;;;;;;;20.20;51.80;;;;;;5025845;28;2041;-68
2021/03/24 08:46:16;;;;;;;;;;;20.30;52.00;;;;;;5031564;28;1268;-68
2021/03/24 08:48:44;;;;;;;;;;;20.20;52.00;;;;;;5032968;28;1190;-68
2021/03/24 08:51:27;;;;;;;;;;;20.20;52.10;;;;;;5031635;28;1418;-68
2021/03/24 08:54:21;;;;;;;;;;;20.30;52.20;;;;;;5031489;28;1961;-68
2021/03/24 08:56:52;;;;;;;;;;;20.20;52.20;;;;;;5031190;28;1344;-68
2021/03/24 08:59:27;;;;;;;;;;;20.30;52.30;;;;;;5014762;28;1385;-68
2021/03/24 09:02:01;;;;;;;;;;;20.20;52.20;;;;;;5032404;28;1311;-68
2021/03/24 09:04:32;;;;;;;;;;;20.20;52.30;;;;;;5031225;28;1325;-68
2021/03/24 09:07:23;;;;;;;;;;;20.20;52.30;;;;;;5032586;28;1398;-68
2021/03/24 09:10:02;;;;;;;;;;;20.20;52.40;;;;;;5031566;28;1342;-68
2021/03/24 09:12:28;;;;;;;;;;;20.20;52.40;;;;;;5024600;28;1342;-68
2021/03/24 09:14:57;;;;;;;;;;;20.20;52.70;;;;;;5031084;28;1948;-68
2021/03/24 09:17:41;;;;;;;;;;;20.20;52.80;;;;;;5019526;28;1807;-68
2021/03/24 09:20:12;;;;;;;;;;;20.20;52.80;;;;;;5019664;28;1362;-68
2021/03/24 09:22:41;;;;;;;;;;;20.20;52.80;;;;;;5027378;28;1323;-68
2021/03/24 09:25:06;;;;;;;;;;;20.20;52.90;;;;;;5032770;28;1272;-68
2021/03/24 09:27:35;;;;;;;;;;;20.20;52.80;;;;;;5031383;28;1612;-68
2021/03/24 09:30:21;;;;;;;;;;;20.20;52.90;;;;;;5031508;28;1300;-68
2021/03/24 09:33:04;;;;;;;;;;;20.20;52.90;;;;;;5032793;28;1422;-68
2021/03/24 09:35:33;;;;;;;;;;;20.20;53.00;;;;;;5023973;28;1902;-68
2021/03/24 09:38:04;;;;;;;;;;;20.20;53.10;;;;;;5030760;28;1334;-67
2021/03/24 09:40:34;;;;;;;;;;;20.20;53.10;;;;;;5030128;28;2172;-68
2021/03/24 09:43:00;;;;;;;;;;;20.10;53.10;;;;;;5031314;28;1286;-69
2021/03/24 09:45:30;;;;;;;;;;;20.10;53.20;;;;;;5029956;28;1427;-68
2021/03/24 09:48:14;;;;;;;;;;;20.10;53.20;;;;;;5031066;28;1337;-69
2021/03/24 09:50:44;;;;;;;;;;;20.10;53.20;;;;;;5030434;28;1612;-68
2021/03/24 09:53:15;;;;;;;;;;;20.10;53.30;;;;;;5031335;28;1318;-68
2021/03/24 09:55:46;;;;;;;;;;;20.10;53.30;;;;;;5028377;28;1898;-67
2021/03/24 09:58:14;;;;;;;;;;;20.10;53.20;;;;;;5034749;28;1402;-68
2021/03/24 10:00:42;;;;;;;;;;;20.10;53.30;;;;;;5035291;28;1552;-67
2021/03/24 10:03:15;;;;;;;;;;;20.10;53.40;;;;;;5034758;28;1297;-67
2021/03/24 10:05:51;;;;;;;;;;;20.10;53.60;;;;;;5034200;28;1518;-67
2021/03/24 10:08:17;;;;;;;;;;;20.10;53.50;;;;;;5036034;28;1477;-68
2021/03/24 10:10:43;;;;;;;;;;;20.10;53.70;;;;;;5034423;28;1382;-67
2021/03/24 10:13:20;;;;;;;;;;;20.10;53.70;;;;;;5034656;28;1375;-67
2021/03/24 10:16:03;;;;;;;;;;;20.10;53.80;;;;;;5027921;28;1977;-67
2021/03/24 10:18:38;;;;;;;;;;;20.10;53.80;;;;;;5032318;28;2006;-67
2021/03/24 10:21:20;;;;;;;;;;;20.10;53.90;;;;;;5031637;28;1041;-67
2021/03/24 10:24:08;;;;;;;;;;;20.10;53.90;;;;;;5033566;28;1897;-66
2021/03/24 10:26:45;;;;;;;;;;;20.10;54.00;;;;;;5031325;28;1096;-66
2021/03/24 10:29:12;;;;;;;;;;;20.10;54.00;;;;;;5029467;28;1327;-66
2021/03/24 10:31:51;;;;;;;;;;;20.10;54.00;;;;;;5034481;28;1352;-66
2021/03/24 10:34:21;;;;;;;;;;;20.10;54.00;;;;;;5033981;28;2029;-66
2021/03/24 10:36:50;;;;;;;;;;;20.10;54.00;;;;;;5034294;28;1006;-67
2021/03/24 10:39:27;;;;;;;;;;;20.10;54.20;;;;;;5034100;28;1527;-66
2021/03/24 10:42:11;;;;;;;;;;;20.10;54.20;;;;;;5017751;28;1395;-66
2021/03/24 10:44:39;;;;;;;;;;;20.10;54.20;;;;;;5034916;28;1432;-66
2021/03/24 10:47:21;;;;;;;;;;;20.10;54.30;;;;;;5035080;28;1048;-66
2021/03/24 10:50:02;;;;;;;;;;;20.10;54.30;;;;;;5034163;28;1406;-66
2021/03/24 10:52:31;;;;;;;;;;;20.10;54.20;;;;;;5033968;28;1430;-68
2021/03/24 10:54:57;;;;;;;;;;;20.00;54.20;;;;;;5033826;28;1903;-68
2021/03/24 10:57:43;;;;;;;;;;;20.10;54.30;;;;;;5033803;28;1488;-67
2021/03/24 11:00:24;;;;;;;;;;;20.10;54.30;;;;;;5033718;28;1333;-68
2021/03/24 11:03:01;;;;;;;;;;;20.00;54.30;;;;;;5034969;28;1328;-68
2021/03/24 11:05:45;;;;;;;;;;;20.00;54.30;;;;;;5031991;28;1167;-67
2021/03/24 11:08:11;;;;;;;;;;;20.00;54.40;;;;;;5034757;28;1326;-68
2021/03/24 11:10:42;;;;;;;;;;;20.00;54.40;;;;;;5034927;28;1371;-68
2021/03/24 11:13:27;;;;;;;;;;;20.00;54.40;;;;;;5035008;28;1629;-68
2021/03/24 11:15:56;;;;;;;;;;;20.00;54.50;;;;;;5033076;28;1986;-66
2021/03/24 11:18:25;;;;;;;;;;;20.00;54.50;;;;;;5034166;28;1367;-67
2021/03/24 11:20:54;;;;;;;;;;;20.00;54.50;;;;;;5033560;28;1328;-67
2021/03/24 11:23:28;;;;;;;;;;;20.00;54.70;;;;;;5033389;28;1297;-67
2021/03/24 11:26:02;;;;;;;;;;;20.00;54.70;;;;;;5033417;28;1284;-67
2021/03/24 11:28:29;;;;;;;;;;;20.00;54.80;;;;;;5032929;28;1429;-67
2021/03/24 11:31:03;;;;;;;;;;;20.00;54.80;;;;;;5033311;28;1351;-67
2021/03/24 11:33:32;;;;;;;;;;;20.00;54.90;;;;;;5036118;28;1427;-66
2021/03/24 11:35:59;;;;;;;;;;;20.00;54.80;;;;;;5033332;28;1902;-67
2021/03/24 11:38:43;;;;;;;;;;;20.00;54.90;;;;;;5032911;28;1222;-67
2021/03/24 11:41:08;;;;;;;;;;;20.00;55.00;;;;;;5034300;28;1252;-67
2021/03/24 11:43:35;;;;;;;;;;;20.00;54.90;;;;;;5033993;28;1284;-68
2021/03/24 11:46:16;;;;;;;;;;;20.00;54.90;;;;;;5033127;28;1272;-68
2021/03/24 11:48:51;;;;;;;;;;;20.00;55.00;;;;;;5032385;28;1386;-68
2021/03/24 11:51:46;;;;;;;;;;;20.00;55.00;;;;;;5032838;28;1256;-68
2021/03/24 11:54:27;;;;;;;;;;;20.00;55.00;;;;;;5016484;28;1898;-68
2021/03/24 11:56:57;;;;;;;;;;;20.00;55.20;;;;;;5034035;28;1177;-68
2021/03/24 11:59:26;;;;;;;;;;;20.00;55.20;;;;;;5032266;28;1368;-67
2021/03/24 12:02:00;;;;;;;;;;;20.00;55.20;;;;;;5032747;28;1343;-67
2021/03/24 12:04:26;;;;;;;;;;;20.00;55.70;;;;;;5033571;28;1282;-67
2021/03/24 12:07:10;;;;;;;;;;;20.00;55.10;;;;;;5033937;28;1338;-67
2021/03/24 12:09:37;;;;;;;;;;;20.00;55.10;;;;;;5033499;28;1476;-67
2021/03/24 12:12:08;;;;;;;;;;;20.00;55.10;;;;;;5015948;28;1272;-67
2021/03/24 12:14:34;;;;;;;;;;;20.00;55.00;;;;;;5032874;28;1976;-67
2021/03/24 12:17:00;;;;;;;;;;;20.00;55.20;;;;;;5015134;28;1437;-68
2021/03/24 12:19:32;;;;;;;;;;;20.00;55.10;;;;;;5033512;28;1064;-69
2021/03/24 12:21:58;;;;;;;;;;;20.00;55.70;;;;;;5025885;28;2159;-68
2021/03/24 12:24:25;;;;;;;;;;;20.00;55.10;;;;;;5015637;28;1325;-68
2021/03/24 12:26:51;;;;;;;;;;;20.00;55.50;;;;;;5031698;28;1350;-66
2021/03/24 12:29:19;;;;;;;;;;;20.00;55.50;;;;;;5032185;28;1321;-67
2021/03/24 12:31:54;;;;;;;;;;;20.00;55.30;;;;;;5033123;28;1056;-67
2021/03/24 12:34:20;;;;;;;;;;;20.00;55.40;;;;;;5032060;28;1959;-68
2021/03/24 12:37:04;;;;;;;;;;;20.00;55.40;;;;;;5032024;28;1349;-66
2021/03/24 12:39:36;;;;;;;;;;;20.00;55.40;;;;;;5032177;28;1331;-66
2021/03/24 12:42:26;;;;;;;;;;;20.00;55.50;;;;;;5031868;28;1142;-66
2021/03/24 12:44:52;;;;;;;;;;;20.00;55.40;;;;;;5032053;28;1364;-67
2021/03/24 12:47:24;;;;;;;;;;;20.00;55.40;;;;;;5031554;28;1347;-68
2021/03/24 12:49:59;;;;;;;;;;;20.00;55.50;;;;;;5033002;28;1294;-67
2021/03/24 12:52:27;;;;;;;;;;;20.00;55.40;;;;;;5031853;28;1547;-68
2021/03/24 12:54:52;;;;;;;;;;;20.00;55.60;;;;;;5031404;28;1902;-67
2021/03/24 12:57:36;;;;;;;;;;;20.00;55.40;;;;;;5032750;28;1294;-67
2021/03/24 13:00:02;;;;;;;;;;;20.10;55.30;;;;;;5032468;28;1310;-68
2021/03/24 13:02:27;;;;;;;;;;;20.10;55.20;;;;;;5029702;28;1433;-67
2021/03/24 13:05:11;;;;;;;;;;;20.20;55.30;;;;;;5035555;22;2295;-65
2021/03/24 13:07:46;;;;;;;;;;;20.20;54.70;;;;;;5025122;28;1534;-65
2021/03/24 13:10:14;;;;;;;;;;;20.30;53.00;;;;;;5032591;28;1646;-65
2021/03/24 13:12:48;;;;;;;;;;;20.30;51.60;;;;;;5031885;28;1624;-64
2021/03/24 13:15:23;;;;;;;;;;;20.30;51.10;;;;;;5008044;28;1923;-64
2021/03/24 13:17:53;;;;;;;;;;;20.40;49.40;;;;;;5003328;28;1397;-64
2021/03/24 13:20:41;;;;;;;;;;;20.30;48.30;;;;;;5016812;28;1514;-65
2021/03/24 13:23:11;;;;;;;;;;;20.30;48.00;;;;;;5012149;28;1420;-66
2021/03/24 13:25:43;;;;;;;;;;;20.40;47.80;;;;;;5009947;28;1925;-65
2021/03/24 13:28:13;;;;;;;;;;;20.40;47.50;;;;;;5027774;28;1116;-67
2021/03/24 13:30:52;;;;;;;;;;;20.40;47.40;;;;;;5016689;28;1898;-65
2021/03/24 13:33:23;;;;;;;;;;;20.40;47.10;;;;;;5032613;28;1307;-65
2021/03/24 13:35:51;;;;;;;;;;;20.40;46.80;;;;;;5022219;28;1913;-66
2021/03/24 13:38:29;;;;;;;;;;;20.40;46.60;;;;;;5010948;28;1349;-64
2021/03/24 13:40:56;;;;;;;;;;;20.40;46.50;;;;;;5029599;28;1314;-65
2021/03/24 13:43:42;;;;;;;;;;;20.40;46.40;;;;;;5014374;28;1522;-65
2021/03/24 13:46:08;;;;;;;;;;;20.40;46.30;;;;;;5022634;28;1116;-64
2021/03/24 13:48:35;;;;;;;;;;;20.40;46.00;;;;;;5018471;28;1068;-66
2021/03/24 13:51:08;;;;;;;;;;;20.40;45.60;;;;;;5014348;28;1571;-66
2021/03/24 13:53:43;;;;;;;;;;;20.40;45.40;;;;;;5025275;28;1323;-65
2021/03/24 13:56:08;;;;;;;;;;;20.40;45.30;;;;;;5015021;28;1973;-65
2021/03/24 13:58:53;;;;;;;;;;;20.40;45.40;;;;;;5015037;28;1320;-65
2021/03/24 14:01:22;;;;;;;;;;;20.40;45.10;;;;;;5015342;28;1381;-65
2021/03/24 14:03:57;;;;;;;;;;;20.50;45.20;;;;;;5010633;28;1407;-65
2021/03/24 14:06:26;;;;;;;;;;;20.50;44.90;;;;;;5025122;28;1334;-65
2021/03/24 14:09:13;;;;;;;;;;;20.50;44.50;;;;;;5014993;28;1306;-66
2021/03/24 14:11:44;;;;;;;;;;;20.50;44.30;;;;;;5010708;28;1464;-65
2021/03/24 14:14:10;;;;;;;;;;;20.50;44.40;;;;;;5006742;28;1902;-65
2021/03/24 14:16:42;;;;;;;;;;;20.50;44.30;;;;;;5015183;28;1381;-65
2021/03/24 14:19:28;;;;;;;;;;;20.50;44.10;;;;;;5009679;28;1391;-66
2021/03/24 14:21:56;;;;;;;;;;;20.50;44.10;;;;;;5018915;28;1236;-65
2021/03/24 14:24:32;;;;;;;;;;;20.50;44.00;;;;;;5017083;28;1312;-65
2021/03/24 14:27:01;;;;;;;;;;;20.50;43.90;;;;;;5022907;28;1153;-65
2021/03/24 14:29:39;;;;;;;;;;;20.50;43.70;;;;;;5014621;28;1044;-66
2021/03/24 14:32:19;;;;;;;;;;;20.50;43.80;;;;;;5016797;28;1209;-65
2021/03/24 14:35:03;;;;;;;;;;;20.50;43.90;;;;;;5020542;28;1966;-66
2021/03/24 14:37:47;;;;;;;;;;;20.50;44.00;;;;;;5030321;28;1361;-67
2021/03/24 14:40:12;;;;;;;;;;;20.50;43.80;;;;;;5008375;28;1240;-66
2021/03/24 14:42:40;;;;;;;;;;;20.50;43.50;;;;;;5013902;28;986;-67
2021/03/24 14:45:29;;;;;;;;;;;20.50;43.50;;;;;;5008709;28;1212;-67
2021/03/24 14:48:24;;;;;;;;;;;20.50;43.20;;;;;;5011658;28;1270;-67
2021/03/24 14:50:52;;;;;;;;;;;20.50;43.10;;;;;;5002177;28;1849;-68
2021/03/24 14:53:24;;;;;;;;;;;20.50;43.00;;;;;;5014748;28;1358;-68
2021/03/24 14:56:06;;;;;;;;;;;20.50;43.10;;;;;;5015535;28;1903;-69
2021/03/24 14:58:35;;;;;;;;;;;20.50;43.00;;;;;;5014855;28;1366;-67